Rancho Park, California
Current Conditions -  °F | °C
As of 2:51 PM on Tuesday 21 Oct 2014 (Local Time) from KSMO Reporting Station
Few Clouds Few Clouds  
Wind Chill: 71°   Ceiling: Unl
Heat Index: 71°   Visibility: 10mi
Dew Point: 61°   Wind: 12mph
Humidity: 70%   Direction: 240°WSW
Pressure: 29.85"   Gusts: NA
Location:  34.0365°N, 118.425°W
Report Text: KSMO 212151Z 24010KT 10SM FEW013 22/16 A2985 RMK AO2 SLP107 T02170161
Loading
Personal Weather Stations






























Interactive Weather Map
Tropical Storm Tracking
New forecast layout! Learn more

10-Day Weather Forecast

Advertisements
Track Severe Weather on mobile